Time;durP1;ratioP1;P1;durP2;ratioP2;P2;SDS_P1;SDS_P2;PMS_P1;PMS_P2;Temp;Humidity;BMP_temperature;BMP_pressure;BME280_temperature;BME280_humidity;BME280_pressure;Samples;Min_cycle;Max_cycle;Signal;HPM_P1;HPM_P2
2023/08/22 00:00:13;;;;;;;11.38;6.05;;;18.20;99.90;;;;;;4994254;28;20023;-92
2023/08/22 00:02:39;;;;;;;8.20;5.03;;;18.20;99.90;;;;;;4984769;28;20030;-92
2023/08/22 00:05:05;;;;;;;10.15;5.97;;;18.10;99.90;;;;;;4994064;28;20134;-92
2023/08/22 00:07:30;;;;;;;10.60;6.28;;;18.10;99.90;;;;;;4994013;28;20117;-92
2023/08/22 00:09:56;;;;;;;8.48;5.78;;;18.10;99.90;;;;;;4994299;28;20050;-93
2023/08/22 00:12:22;;;;;;;7.55;5.60;;;18.10;99.90;;;;;;4994239;28;20033;-92
2023/08/22 00:14:47;;;;;;;12.00;5.32;;;18.10;99.90;;;;;;4994086;28;20031;-92
2023/08/22 00:17:13;;;;;;;9.98;5.43;;;18.10;99.90;;;;;;4989632;28;20027;-93
2023/08/22 00:19:39;;;;;;;10.70;5.90;;;18.10;99.90;;;;;;4993789;28;20038;-93
2023/08/22 00:22:05;;;;;;;9.57;6.05;;;18.10;99.90;;;;;;4994431;28;20480;-93
2023/08/22 00:24:32;;;;;;;10.30;6.75;;;18.20;99.90;;;;;;4993078;28;20054;-93
2023/08/22 00:26:58;;;;;;;14.32;6.95;;;18.20;99.90;;;;;;4992848;28;20082;-93
2023/08/22 00:29:24;;;;;;;11.43;6.80;;;18.10;99.90;;;;;;4994258;28;20031;-93
2023/08/22 00:31:49;;;;;;;14.43;7.10;;;18.10;99.90;;;;;;4993133;28;20438;-93
2023/08/22 00:34:15;;;;;;;14.43;6.95;;;18.10;99.90;;;;;;4992591;28;20034;-93
2023/08/22 00:36:40;;;;;;;10.48;7.03;;;18.10;99.90;;;;;;4993659;28;20026;-94
2023/08/22 00:39:06;;;;;;;14.15;6.53;;;18.10;99.90;;;;;;4992784;28;20085;-93
2023/08/22 00:41:32;;;;;;;12.82;6.55;;;18.10;99.90;;;;;;4992663;28;20072;-92
2023/08/22 00:43:58;;;;;;;14.35;6.55;;;18.10;99.90;;;;;;4993263;28;20126;-93
2023/08/22 00:46:28;;;;;;;13.27;6.07;;;18.10;99.90;;;;;;4993548;28;20159;-92
2023/08/22 00:48:53;;;;;;;15.18;6.75;;;18.10;99.90;;;;;;4992789;28;20545;-93
2023/08/22 00:51:20;;;;;;;12.07;5.63;;;18.10;99.90;;;;;;4993376;28;20034;-94
2023/08/22 00:53:47;;;;;;;12.73;6.03;;;18.00;99.90;;;;;;4992744;28;20038;-93
2023/08/22 00:56:12;;;;;;;11.20;6.13;;;18.10;99.90;;;;;;4993601;28;20069;-93
2023/08/22 00:58:38;;;;;;;12.07;6.53;;;18.00;99.90;;;;;;4988993;28;20053;-93
2023/08/22 01:01:04;;;;;;;11.88;7.00;;;18.00;99.90;;;;;;4990055;28;20049;-92
2023/08/22 01:03:30;;;;;;;11.18;6.45;;;18.00;99.90;;;;;;5008967;28;20054;-92
2023/08/22 01:06:14;;;;;;;12.73;7.20;;;18.00;99.90;;;;;;4992679;28;20023;-93
2023/08/22 01:08:46;;;;;;;12.35;6.20;;;18.00;99.90;;;;;;4976284;28;20039;-93
2023/08/22 01:11:24;;;;;;;11.90;6.43;;;18.00;99.90;;;;;;4992372;28;20030;-93
2023/08/22 01:13:53;;;;;;;10.40;6.55;;;17.90;99.90;;;;;;4992853;28;20132;-93
2023/08/22 01:16:19;;;;;;;9.20;6.18;;;17.90;99.90;;;;;;4988462;28;20025;-92
2023/08/22 01:18:45;;;;;;;13.75;6.60;;;17.90;99.90;;;;;;4991819;28;20038;-93
2023/08/22 01:21:21;;;;;;;10.43;6.30;;;17.80;99.90;;;;;;4992253;28;20022;-93
2023/08/22 01:23:47;;;;;;;14.52;5.95;;;17.90;99.90;;;;;;4992379;28;20088;-92
2023/08/22 01:26:13;;;;;;;14.70;6.07;;;17.80;99.90;;;;;;4992502;28;20050;-92
2023/08/22 01:28:46;;;;;;;13.23;6.25;;;17.80;99.90;;;;;;4991586;28;20054;-92
2023/08/22 01:31:15;;;;;;;13.45;6.95;;;17.90;99.90;;;;;;4992976;28;20026;-92
2023/08/22 01:34:09;;;;;;;10.95;6.53;;;17.80;99.90;;;;;;4988016;28;20022;-93
2023/08/22 01:36:37;;;;;;;11.23;6.45;;;17.80;99.90;;;;;;4992211;28;20487;-92
2023/08/22 01:39:07;;;;;;;13.30;6.88;;;17.80;99.90;;;;;;4991654;28;20041;-92
2023/08/22 01:41:34;;;;;;;10.95;6.88;;;17.80;99.90;;;;;;4992185;28;20053;-93
2023/08/22 01:44:01;;;;;;;10.05;6.82;;;17.80;99.90;;;;;;4992713;28;20482;-93
2023/08/22 01:46:27;;;;;;;11.70;6.22;;;17.80;99.90;;;;;;4983114;28;20042;-93
2023/08/22 01:48:52;;;;;;;12.02;6.65;;;17.80;99.90;;;;;;4992385;28;20026;-93
2023/08/22 01:51:18;;;;;;;11.02;6.50;;;17.70;99.90;;;;;;4992988;28;20455;-92
2023/08/22 01:53:43;;;;;;;14.02;7.18;;;17.70;99.90;;;;;;4991439;28;20038;-92
2023/08/22 01:56:09;;;;;;;12.07;6.88;;;17.70;99.90;;;;;;4991985;28;20376;-94
2023/08/22 01:58:34;;;;;;;15.95;8.93;;;17.70;99.90;;;;;;4992695;28;20049;-92
2023/08/22 02:01:08;;;;;;;11.70;7.55;;;17.70;99.90;;;;;;4992275;28;20118;-92
2023/08/22 02:03:34;;;;;;;11.18;7.07;;;17.70;99.90;;;;;;4991650;28;20030;-93
2023/08/22 02:05:59;;;;;;;12.90;7.57;;;17.70;99.90;;;;;;4990788;28;20042;-92
2023/08/22 02:08:25;;;;;;;13.82;7.85;;;17.70;99.90;;;;;;4992510;28;20037;-93
2023/08/22 02:10:50;;;;;;;14.82;8.20;;;17.70;99.90;;;;;;4992064;28;20387;-92
2023/08/22 02:13:16;;;;;;;12.75;8.20;;;17.70;99.90;;;;;;4992158;28;20026;-93
2023/08/22 02:15:41;;;;;;;15.30;8.63;;;17.60;99.90;;;;;;4990222;28;20069;-93
2023/08/22 02:18:07;;;;;;;11.15;8.05;;;17.70;99.90;;;;;;4992320;28;20074;-94
2023/08/22 02:20:32;;;;;;;18.23;8.65;;;17.70;99.90;;;;;;4976186;28;20043;-93
2023/08/22 02:22:58;;;;;;;16.08;7.97;;;17.70;99.90;;;;;;4991564;28;20018;-93
2023/08/22 02:25:25;;;;;;;12.82;8.88;;;17.60;99.90;;;;;;4991486;28;20110;-93
2023/08/22 02:27:50;;;;;;;10.68;8.45;;;17.60;99.90;;;;;;4991166;28;20521;-93
2023/08/22 02:30:16;;;;;;;17.20;8.73;;;17.60;99.90;;;;;;4975021;28;20030;-93
2023/08/22 02:32:41;;;;;;;13.32;8.43;;;17.60;99.90;;;;;;4983072;28;20096;-93
2023/08/22 02:35:07;;;;;;;12.35;8.48;;;17.60;99.90;;;;;;4991755;28;20066;-92
2023/08/22 02:37:32;;;;;;;13.35;8.95;;;17.60;99.90;;;;;;4982508;28;20078;-93
2023/08/22 02:39:58;;;;;;;17.00;8.70;;;17.50;99.90;;;;;;4979892;28;20128;-92
2023/08/22 02:42:24;;;;;;;12.20;9.25;;;17.50;99.90;;;;;;4981016;28;20030;-92
2023/08/22 02:44:49;;;;;;;15.95;10.70;;;17.50;99.90;;;;;;4986380;28;20372;-93
2023/08/22 02:47:15;;;;;;;15.27;9.27;;;17.50;99.90;;;;;;4991578;28;20034;-93
2023/08/22 02:49:41;;;;;;;13.60;9.85;;;17.40;99.90;;;;;;4989038;28;20030;-93
2023/08/22 02:52:06;;;;;;;16.85;11.27;;;17.40;99.90;;;;;;4976654;28;20078;-93
2023/08/22 02:54:32;;;;;;;18.45;11.07;;;17.40;99.90;;;;;;4991212;28;20121;-94
2023/08/22 02:56:57;;;;;;;16.63;11.43;;;17.40;99.90;;;;;;4991286;28;20033;-93
2023/08/22 02:59:23;;;;;;;14.60;9.27;;;17.40;99.90;;;;;;4991934;28;20065;-92
2023/08/22 03:01:48;;;;;;;15.52;10.35;;;17.40;99.90;;;;;;4991828;28;20122;-93
2023/08/22 03:04:14;;;;;;;13.10;9.60;;;17.30;99.90;;;;;;4991335;28;20724;-94
2023/08/22 03:06:40;;;;;;;15.63;10.68;;;17.30;99.90;;;;;;4994221;28;20027;-92
2023/08/22 03:09:05;;;;;;;15.93;11.65;;;17.30;99.90;;;;;;4995274;28;20128;-92
2023/08/22 03:11:31;;;;;;;19.20;11.27;;;17.20;99.90;;;;;;4995161;28;20033;-94
2023/08/22 03:13:57;;;;;;;14.77;10.57;;;17.20;99.90;;;;;;4995267;28;20030;-93
2023/08/22 03:16:22;;;;;;;17.75;12.57;;;17.20;99.90;;;;;;4994199;28;20029;-92
2023/08/22 03:18:48;;;;;;;13.57;10.95;;;17.10;99.90;;;;;;4994926;28;20026;-92
2023/08/22 03:21:14;;;;;;;16.65;11.65;;;17.10;99.90;;;;;;4994391;28;20097;-94
2023/08/22 03:23:39;;;;;;;16.17;11.38;;;17.00;99.90;;;;;;4993768;28;20038;-93
2023/08/22 03:26:10;;;;;;;16.05;12.00;;;17.00;99.90;;;;;;4993845;28;20387;-94
2023/08/22 03:28:36;;;;;;;14.80;11.88;;;16.90;99.90;;;;;;4987543;28;20038;-93
2023/08/22 03:31:05;;;;;;;16.92;11.32;;;16.90;99.90;;;;;;4994124;28;20489;-92
2023/08/22 03:33:32;;;;;;;12.90;9.95;;;16.90;99.90;;;;;;4980651;28;20093;-93
2023/08/22 03:35:58;;;;;;;13.00;9.50;;;16.90;99.90;;;;;;4993266;28;20070;-93
2023/08/22 03:38:25;;;;;;;12.75;8.88;;;16.80;99.90;;;;;;4994157;28;20065;-93
2023/08/22 03:40:51;;;;;;;12.23;9.60;;;16.80;99.90;;;;;;4994251;28;20026;-93
2023/08/22 03:43:18;;;;;;;17.92;12.13;;;16.70;99.90;;;;;;4994310;28;20050;-93
2023/08/22 03:45:44;;;;;;;21.92;12.85;;;16.70;99.90;;;;;;4993540;28;20112;-92
2023/08/22 03:48:10;;;;;;;19.08;12.10;;;16.70;99.90;;;;;;4994347;28;20022;-92
2023/08/22 03:50:37;;;;;;;16.67;13.85;;;16.60;99.90;;;;;;4994344;28;20087;-93
2023/08/22 03:53:03;;;;;;;22.48;14.02;;;16.60;99.90;;;;;;4994215;28;20022;-93
2023/08/22 03:55:30;;;;;;;19.58;13.55;;;16.50;99.90;;;;;;4993378;28;20049;-93
2023/08/22 03:58:00;;;;;;;15.93;12.82;;;16.50;99.90;;;;;;4993946;28;20069;-93
2023/08/22 04:00:26;;;;;;;16.27;10.55;;;16.50;99.90;;;;;;4994055;28;20474;-93
2023/08/22 04:02:55;;;;;;;14.07;10.80;;;16.40;99.90;;;;;;4992703;28;20040;-93
2023/08/22 04:05:22;;;;;;;15.55;11.00;;;16.40;99.90;;;;;;4994312;28;20030;-92
2023/08/22 04:07:48;;;;;;;15.00;12.30;;;16.40;99.90;;;;;;4993229;28;20101;-92
2023/08/22 04:10:13;;;;;;;17.98;12.32;;;16.40;99.90;;;;;;4994424;28;20076;-93
2023/08/22 04:12:39;;;;;;;20.30;12.75;;;16.30;99.90;;;;;;4993761;28;20023;-93
2023/08/22 04:15:05;;;;;;;15.73;11.98;;;16.30;99.90;;;;;;4992928;28;20052;-93
2023/08/22 04:17:31;;;;;;;16.48;12.48;;;16.30;99.90;;;;;;4993343;28;20113;-94
2023/08/22 04:19:56;;;;;;;16.63;12.73;;;16.20;99.90;;;;;;4993148;28;20030;-93
2023/08/22 04:22:22;;;;;;;21.60;15.18;;;16.20;99.90;;;;;;4993646;28;20033;-94
2023/08/22 04:24:47;;;;;;;25.08;15.27;;;16.20;99.90;;;;;;4990602;28;20153;-93
2023/08/22 04:27:13;;;;;;;19.48;13.90;;;16.20;99.90;;;;;;5004803;28;20050;-94
2023/08/22 04:29:38;;;;;;;15.85;12.80;;;16.20;99.90;;;;;;4992899;28;20498;-93
2023/08/22 04:32:04;;;;;;;19.95;13.45;;;16.20;99.90;;;;;;4989769;28;20027;-93
2023/08/22 04:34:29;;;;;;;22.02;14.50;;;16.20;99.90;;;;;;5001614;28;20038;-93
2023/08/22 04:36:55;;;;;;;18.27;13.45;;;16.20;99.90;;;;;;4990047;28;20046;-93
2023/08/22 04:39:21;;;;;;;15.18;11.65;;;16.20;99.90;;;;;;5002598;28;20120;-93
2023/08/22 04:41:46;;;;;;;12.90;8.73;;;16.10;99.90;;;;;;4989236;28;20050;-92
2023/08/22 04:44:12;;;;;;;11.75;9.00;;;16.20;99.90;;;;;;4993343;28;20146;-93
2023/08/22 04:46:37;;;;;;;9.43;6.05;;;16.10;99.90;;;;;;4993370;28;20023;-92
2023/08/22 04:49:03;;;;;;;6.90;5.38;;;16.10;99.90;;;;;;4993361;28;20018;-92
2023/08/22 04:51:28;;;;;;;5.68;4.35;;;16.00;99.90;;;;;;4993453;28;20014;-92
2023/08/22 04:53:54;;;;;;;6.57;5.15;;;16.00;99.90;;;;;;4993742;28;20539;-93
2023/08/22 04:56:20;;;;;;;6.82;5.78;;;16.10;99.90;;;;;;5013435;28;20034;-92
2023/08/22 04:58:46;;;;;;;7.53;6.65;;;16.10;99.90;;;;;;4978267;28;20030;-93
2023/08/22 05:01:11;;;;;;;12.25;8.18;;;16.10;99.90;;;;;;4992876;28;20360;-93
2023/08/22 05:03:37;;;;;;;14.00;7.88;;;16.10;99.90;;;;;;4994421;28;20498;-93
2023/08/22 05:06:02;;;;;;;14.25;9.00;;;16.10;99.90;;;;;;4995944;28;20036;-93
2023/08/22 05:08:28;;;;;;;12.43;10.80;;;16.10;99.90;;;;;;4984336;28;20056;-92
2023/08/22 05:10:53;;;;;;;15.35;10.85;;;16.10;99.90;;;;;;4992634;28;20021;-93
2023/08/22 05:13:19;;;;;;;16.73;13.13;;;16.10;99.90;;;;;;4999071;28;20048;-93
2023/08/22 05:15:44;;;;;;;17.05;12.35;;;16.10;99.90;;;;;;4995435;28;20036;-92
2023/08/22 05:18:10;;;;;;;17.42;12.95;;;16.10;99.90;;;;;;4996490;28;20021;-92
2023/08/22 05:20:37;;;;;;;22.05;12.98;;;16.20;99.90;;;;;;4996547;28;20538;-92
2023/08/22 05:23:03;;;;;;;21.73;12.93;;;16.20;99.90;;;;;;4996703;28;20084;-94
2023/08/22 05:25:28;;;;;;;23.67;13.73;;;16.20;99.90;;;;;;5002203;28;20026;-93
2023/08/22 05:27:54;;;;;;;18.40;13.50;;;16.20;99.90;;;;;;4994395;28;20034;-93
2023/08/22 05:30:21;;;;;;;17.95;14.73;;;16.30;99.90;;;;;;4995219;28;20486;-93
2023/08/22 05:32:46;;;;;;;19.20;14.70;;;16.40;99.90;;;;;;4995618;28;20061;-94
2023/08/22 05:35:12;;;;;;;18.10;14.10;;;16.40;99.90;;;;;;4996631;28;20167;-93
2023/08/22 05:37:37;;;;;;;18.55;14.65;;;16.50;99.90;;;;;;4995057;28;20030;-93
2023/08/22 05:40:06;;;;;;;24.35;18.90;;;16.60;99.90;;;;;;4998663;28;20034;-94
2023/08/22 05:42:31;;;;;;;20.08;16.80;;;16.80;99.90;;;;;;5009787;28;20030;-93
2023/08/22 05:44:57;;;;;;;21.52;18.17;;;16.90;99.90;;;;;;4992493;28;20116;-93
2023/08/22 05:47:22;;;;;;;26.80;18.98;;;17.00;99.90;;;;;;5007237;28;20022;-94
2023/08/22 05:49:48;;;;;;;27.25;19.67;;;17.10;99.90;;;;;;5000727;28;20021;-93
2023/08/22 05:52:13;;;;;;;29.13;18.20;;;17.20;99.90;;;;;;4993245;28;20458;-94
2023/08/22 05:54:40;;;;;;;29.90;18.83;;;17.30;99.90;;;;;;4994800;28;20184;-93
2023/08/22 05:57:05;;;;;;;24.48;19.00;;;17.40;99.90;;;;;;5011194;28;20075;-93
2023/08/22 05:59:31;;;;;;;26.02;18.40;;;17.40;99.90;;;;;;4995314;28;20112;-93
2023/08/22 06:01:56;;;;;;;25.63;18.58;;;17.50;99.90;;;;;;4995628;28;20038;-93
2023/08/22 06:04:22;;;;;;;22.55;17.60;;;17.60;99.90;;;;;;4996124;28;20029;-93
2023/08/22 06:06:48;;;;;;;26.42;18.35;;;17.70;99.90;;;;;;4997991;28;20049;-94
2023/08/22 06:09:13;;;;;;;26.15;17.55;;;17.70;99.90;;;;;;5001787;28;20056;-93
2023/08/22 06:11:39;;;;;;;25.42;17.77;;;17.80;99.90;;;;;;4995443;28;20453;-93
2023/08/22 06:14:05;;;;;;;28.10;17.63;;;18.00;99.90;;;;;;5004522;28;20510;-93
2023/08/22 06:16:31;;;;;;;23.80;17.80;;;18.10;99.90;;;;;;4997875;28;20022;-94
2023/08/22 06:18:56;;;;;;;22.80;17.08;;;18.20;99.90;;;;;;4995520;28;20021;-93
2023/08/22 06:21:22;;;;;;;21.10;15.65;;;18.30;99.90;;;;;;4993121;28;20017;-93
2023/08/22 06:23:48;;;;;;;22.15;16.35;;;18.40;99.90;;;;;;4992852;28;20044;-92
2023/08/22 06:26:14;;;;;;;19.92;17.10;;;18.50;99.90;;;;;;4989823;28;20022;-94
2023/08/22 06:28:40;;;;;;;23.35;17.20;;;18.60;99.90;;;;;;4992210;28;20479;-93
2023/08/22 06:31:06;;;;;;;25.55;15.05;;;18.80;99.90;;;;;;4997680;28;20022;-93
2023/08/22 06:33:31;;;;;;;23.10;15.77;;;19.00;99.90;;;;;;5013069;28;20018;-93
2023/08/22 06:35:57;;;;;;;23.02;13.73;;;19.10;99.90;;;;;;5010038;28;20022;-94
2023/08/22 06:38:23;;;;;;;20.48;14.10;;;19.20;99.90;;;;;;5005082;28;20018;-93
2023/08/22 06:40:49;;;;;;;14.27;11.13;;;19.40;99.90;;;;;;5012095;28;20102;-93
2023/08/22 06:43:15;;;;;;;19.38;10.75;;;19.60;99.90;;;;;;4996478;28;20034;-93
2023/08/22 06:45:41;;;;;;;16.20;9.18;;;19.70;99.90;;;;;;5015465;28;20112;-93
2023/08/22 06:48:07;;;;;;;15.80;9.30;;;19.90;99.90;;;;;;5018940;28;20433;-93
2023/08/22 06:50:33;;;;;;;13.43;9.00;;;20.10;99.90;;;;;;5010392;28;20040;-93
2023/08/22 06:52:59;;;;;;;12.48;7.72;;;20.40;99.90;;;;;;5013764;28;20052;-92
2023/08/22 06:55:25;;;;;;;9.85;6.93;;;20.60;99.90;;;;;;4998081;28;20050;-94
2023/08/22 06:57:51;;;;;;;10.05;7.13;;;20.80;99.90;;;;;;5004906;28;20080;-94
2023/08/22 07:00:16;;;;;;;11.95;7.07;;;20.90;99.90;;;;;;5006466;28;20026;-94
2023/08/22 07:02:44;;;;;;;11.98;5.53;;;21.10;99.90;;;;;;4998883;28;20026;-94
2023/08/22 07:05:11;;;;;;;13.77;5.60;;;21.30;99.90;;;;;;5010996;28;20029;-93
2023/08/22 07:07:37;;;;;;;10.75;5.28;;;21.40;99.90;;;;;;5008887;28;20034;-94
2023/08/22 07:10:08;;;;;;;9.27;4.28;;;21.40;99.90;;;;;;4998504;28;20423;-94
2023/08/22 07:12:34;;;;;;;9.68;5.03;;;21.40;99.90;;;;;;4999118;28;20018;-94
2023/08/22 07:14:59;;;;;;;8.00;4.70;;;21.40;99.90;;;;;;5001461;28;20034;-94
2023/08/22 07:17:25;;;;;;;10.98;4.53;;;21.40;99.90;;;;;;4998890;28;20521;-92
2023/08/22 07:19:51;;;;;;;10.63;4.35;;;21.30;99.90;;;;;;4997740;28;20037;-93
2023/08/22 07:22:16;;;;;;;11.80;4.90;;;21.40;99.90;;;;;;5007486;28;20029;-94
2023/08/22 07:24:42;;;;;;;11.60;5.18;;;21.30;99.90;;;;;;5011904;28;20478;-93
2023/08/22 07:27:10;;;;;;;10.57;4.72;;;21.30;99.90;;;;;;4998112;28;20104;-93
2023/08/22 07:29:35;;;;;;;9.50;4.72;;;21.40;99.90;;;;;;4994615;28;20061;-94
2023/08/22 07:32:01;;;;;;;9.07;4.30;;;21.40;99.90;;;;;;5012984;28;20382;-92
2023/08/22 07:34:27;;;;;;;9.07;4.93;;;21.50;99.90;;;;;;5003081;28;20104;-93
2023/08/22 07:36:52;;;;;;;11.10;4.50;;;21.50;99.90;;;;;;4998521;28;20022;-94
2023/08/22 07:39:20;;;;;;;6.28;3.20;;;21.70;99.90;;;;;;4998119;28;20034;-94
2023/08/22 07:41:46;;;;;;;4.40;2.00;;;22.00;99.90;;;;;;5002074;28;20104;-94
2023/08/22 07:44:13;;;;;;;4.57;1.60;;;22.20;99.90;;;;;;5012587;28;20060;-94
2023/08/22 07:46:38;;;;;;;7.88;2.20;;;22.40;99.90;;;;;;5018535;28;20047;-94
2023/08/22 07:49:04;;;;;;;3.85;2.15;;;22.50;99.90;;;;;;5002326;28;20116;-93
2023/08/22 07:51:30;;;;;;;8.57;2.60;;;22.50;99.90;;;;;;4996185;28;20053;-94
2023/08/22 07:53:56;;;;;;;5.22;2.90;;;22.60;99.90;;;;;;4999637;28;20026;-93
2023/08/22 07:56:22;;;;;;;8.20;2.83;;;22.80;99.90;;;;;;4997334;28;20083;-94
2023/08/22 07:58:48;;;;;;;8.82;2.90;;;23.00;99.90;;;;;;4996982;28;20029;-93
2023/08/22 08:01:13;;;;;;;10.23;3.45;;;23.10;99.90;;;;;;5002711;28;20033;-94
2023/08/22 08:03:39;;;;;;;10.73;4.50;;;23.40;99.90;;;;;;4998182;28;20140;-93
2023/08/22 08:06:05;;;;;;;9.85;4.03;;;23.50;99.90;;;;;;4997691;28;20040;-94
2023/08/22 08:08:30;;;;;;;5.32;2.90;;;23.50;99.90;;;;;;4998014;28;20040;-94
2023/08/22 08:10:56;;;;;;;7.07;2.25;;;23.60;99.90;;;;;;4999288;28;20073;-94
2023/08/22 08:13:21;;;;;;;4.68;2.50;;;23.60;99.90;;;;;;4997351;28;20046;-95
2023/08/22 08:15:47;;;;;;;6.20;1.50;;;23.70;99.90;;;;;;4999705;28;20038;-93
2023/08/22 08:18:14;;;;;;;5.68;1.42;;;23.70;99.90;;;;;;5011220;28;20025;-93
2023/08/22 08:20:40;;;;;;;4.03;1.08;;;23.70;99.90;;;;;;4997542;28;20075;-94
2023/08/22 08:23:05;;;;;;;5.57;1.92;;;23.70;99.90;;;;;;4997452;28;20025;-94
2023/08/22 08:25:31;;;;;;;6.93;1.45;;;23.70;99.90;;;;;;4995956;28;20022;-93
2023/08/22 08:27:58;;;;;;;6.88;1.17;;;23.70;99.90;;;;;;4996910;28;20029;-94
2023/08/22 08:30:23;;;;;;;5.03;1.13;;;23.70;99.90;;;;;;5012167;28;20112;-94
2023/08/22 08:32:49;;;;;;;5.28;1.30;;;23.70;99.90;;;;;;5007735;28;20116;-92
2023/08/22 08:35:14;;;;;;;3.25;1.00;;;23.70;99.90;;;;;;5012997;28;20406;-94
2023/08/22 08:37:40;;;;;;;6.85;1.50;;;23.70;99.90;;;;;;4997018;28;20030;-94
2023/08/22 08:40:08;;;;;;;3.30;1.35;;;23.70;99.90;;;;;;4981011;28;20368;-95
2023/08/22 08:42:36;;;;;;;4.93;1.42;;;23.60;99.90;;;;;;5002365;28;20030;-94
2023/08/22 08:45:04;;;;;;;4.95;1.38;;;23.60;99.90;;;;;;4988909;28;20041;-93
2023/08/22 08:47:32;;;;;;;6.05;1.80;;;23.70;99.90;;;;;;4994096;28;20030;-94
2023/08/22 08:50:06;;;;;;;6.50;1.98;;;23.60;99.90;;;;;;4996377;28;20133;-93
2023/08/22 08:52:32;;;;;;;6.00;1.75;;;23.60;99.90;;;;;;4996789;28;20033;-95
2023/08/22 08:54:58;;;;;;;8.95;1.90;;;23.60;99.90;;;;;;4995957;28;20038;-94
2023/08/22 08:57:24;;;;;;;6.95;2.28;;;23.60;99.90;;;;;;4995686;28;20026;-95
2023/08/22 08:59:50;;;;;;;4.95;1.80;;;23.70;99.90;;;;;;5002910;28;20083;-94
2023/08/22 09:02:17;;;;;;;11.57;1.95;;;23.70;99.90;;;;;;4995896;28;20120;-94
2023/08/22 09:04:43;;;;;;;6.82;2.42;;;23.90;99.90;;;;;;5000583;28;20041;-94
2023/08/22 09:07:08;;;;;;;5.78;2.15;;;23.90;99.90;;;;;;4996752;28;20029;-95
2023/08/22 09:09:35;;;;;;;5.28;2.05;;;24.00;99.90;;;;;;4997057;28;20044;-93
2023/08/22 09:12:07;;;;;;;2.70;1.55;;;24.00;99.90;;;;;;5004261;28;20029;-94
2023/08/22 09:14:33;;;;;;;6.32;1.80;;;24.00;99.90;;;;;;4995833;28;20137;-94
2023/08/22 09:17:01;;;;;;;5.22;1.90;;;24.00;99.90;;;;;;4996639;28;20049;-93
2023/08/22 09:19:34;;;;;;;8.38;2.40;;;24.00;99.90;;;;;;4996742;28;20116;-94
2023/08/22 09:22:03;;;;;;;9.48;2.50;;;24.10;99.90;;;;;;4996386;28;20536;-94
2023/08/22 09:24:30;;;;;;;7.85;2.33;;;24.10;99.90;;;;;;4996327;28;20080;-94
2023/08/22 09:26:56;;;;;;;6.90;2.70;;;24.10;99.90;;;;;;4995897;28;20037;-94
2023/08/22 09:29:30;;;;;;;6.00;2.63;;;24.10;99.90;;;;;;4995896;28;20033;-94
2023/08/22 09:32:01;;;;;;;7.80;2.83;;;24.00;99.90;;;;;;4996286;28;20052;-93
2023/08/22 09:34:27;;;;;;;7.40;2.72;;;24.00;99.90;;;;;;4997786;28;20062;-93
2023/08/22 09:36:56;;;;;;;7.53;3.20;;;23.90;99.90;;;;;;5010075;28;20026;-95
2023/08/22 09:39:25;;;;;;;5.38;2.90;;;23.90;99.90;;;;;;4996181;28;20065;-94
2023/08/22 09:42:00;;;;;;;6.88;3.35;;;24.00;99.90;;;;;;4995832;28;20029;-94
2023/08/22 09:44:28;;;;;;;4.10;2.60;;;24.00;99.90;;;;;;4995338;28;20493;-94
2023/08/22 09:46:55;;;;;;;7.13;3.65;;;24.00;99.90;;;;;;4995948;28;20025;-94
2023/08/22 09:49:22;;;;;;;8.02;3.90;;;24.10;99.90;;;;;;4992618;28;20026;-94
2023/08/22 09:51:50;;;;;;;10.68;4.60;;;24.10;99.90;;;;;;4993265;28;20030;-93
2023/08/22 09:54:16;;;;;;;10.90;4.70;;;24.20;99.90;;;;;;4991382;28;20037;-94
2023/08/22 09:56:43;;;;;;;9.18;3.53;;;24.40;99.90;;;;;;4988991;28;20036;-94
2023/08/22 09:59:12;;;;;;;11.60;5.18;;;24.50;99.90;;;;;;5001099;28;20513;-93
2023/08/22 10:01:39;;;;;;;7.95;3.80;;;24.50;99.90;;;;;;5008716;28;20018;-94
2023/08/22 10:04:05;;;;;;;8.77;3.75;;;24.60;99.90;;;;;;4995522;28;20030;-93
2023/08/22 10:06:33;;;;;;;9.43;4.25;;;24.80;99.90;;;;;;4996170;28;20026;-96
2023/08/22 10:09:00;;;;;;;8.18;4.13;;;24.90;99.90;;;;;;4995863;28;20022;-94
2023/08/22 10:11:28;;;;;;;5.70;4.07;;;24.90;99.90;;;;;;4995689;28;20129;-94
2023/08/22 10:13:54;;;;;;;12.45;5.57;;;24.90;99.90;;;;;;4995077;28;20041;-94
2023/08/22 10:16:29;;;;;;;14.10;4.78;;;24.90;99.90;;;;;;4995644;28;20026;-94
2023/08/22 10:19:02;;;;;;;9.65;4.03;;;24.80;99.90;;;;;;4995620;28;20073;-94
2023/08/22 10:21:48;;;;;;;9.27;4.85;;;24.70;99.90;;;;;;4995658;28;20056;-94
2023/08/22 10:24:23;;;;;;;9.00;4.20;;;24.80;99.90;;;;;;4995541;28;20034;-94
2023/08/22 10:27:03;;;;;;;10.65;3.75;;;24.80;99.90;;;;;;4978862;28;20395;-93
2023/08/22 10:29:38;;;;;;;11.88;3.78;;;24.80;99.90;;;;;;5000154;28;20030;-94
2023/08/22 10:32:03;;;;;;;8.02;3.65;;;24.90;99.90;;;;;;5006259;28;20030;-95
2023/08/22 10:34:38;;;;;;;7.90;3.33;;;24.90;99.90;;;;;;4995671;28;20923;-94
2023/08/22 10:37:05;;;;;;;10.52;2.80;;;25.00;99.90;;;;;;4995519;28;20072;-94
2023/08/22 10:39:38;;;;;;;7.32;2.58;;;25.10;99.90;;;;;;4995638;28;20176;-94
2023/08/22 10:42:05;;;;;;;4.88;2.08;;;25.20;99.90;;;;;;4990268;28;20034;-94
2023/08/22 10:44:30;;;;;;;7.30;2.30;;;25.30;99.90;;;;;;4995328;28;20022;-95
2023/08/22 10:47:18;;;;;;;7.45;1.83;;;25.40;99.90;;;;;;4995346;28;20026;-95
2023/08/22 10:49:49;;;;;;;7.13;1.88;;;25.60;99.90;;;;;;4996527;28;20482;-95
2023/08/22 10:52:17;;;;;;;6.20;1.40;;;25.80;99.90;;;;;;4995455;28;20053;-96
2023/08/22 10:55:10;;;;;;;3.58;1.10;;;25.90;99.10;;;;;;4994754;28;20048;-94
2023/08/22 10:57:46;;;;;;;5.88;1.45;;;26.00;99.00;;;;;;4995404;28;20453;-94
2023/08/22 11:00:18;;;;;;;3.63;1.42;;;26.10;98.80;;;;;;4995318;28;20065;-94
2023/08/22 11:02:45;;;;;;;4.40;0.85;;;26.20;98.00;;;;;;4992602;28;20026;-94
2023/08/22 11:05:12;;;;;;;4.03;1.10;;;26.10;97.40;;;;;;5009292;28;20041;-95
2023/08/22 11:07:44;;;;;;;2.78;1.30;;;26.00;97.10;;;;;;4998531;28;20030;-95
2023/08/22 11:10:18;;;;;;;5.15;1.35;;;26.00;96.80;;;;;;4995222;28;20029;-94
2023/08/22 11:12:45;;;;;;;11.05;1.20;;;26.00;96.50;;;;;;4997342;28;20132;-95
2023/08/22 11:15:15;;;;;;;5.50;0.80;;;26.00;96.90;;;;;;4996363;28;20120;-94
2023/08/22 11:17:43;;;;;;;6.20;0.70;;;26.10;97.00;;;;;;4995674;28;20534;-94
2023/08/22 11:20:16;;;;;;;1.90;0.60;;;26.20;96.60;;;;;;5001115;28;20029;-94
2023/08/22 11:22:43;;;;;;;2.47;0.50;;;26.10;95.70;;;;;;4988838;28;20030;-93
2023/08/22 11:25:10;;;;;;;1.55;0.47;;;26.10;95.50;;;;;;4990616;28;20030;-94
2023/08/22 11:27:40;;;;;;;2.90;0.70;;;26.10;95.10;;;;;;5002735;28;20421;-95
2023/08/22 11:30:06;;;;;;;2.45;0.60;;;26.00;95.10;;;;;;5002507;28;20120;-95
2023/08/22 11:32:35;;;;;;;2.58;0.35;;;26.00;94.90;;;;;;5003580;28;20022;-96
2023/08/22 11:35:04;;;;;;;2.05;0.40;;;26.00;94.90;;;;;;5012188;28;20501;-94
2023/08/22 11:37:34;;;;;;;1.48;0.40;;;26.00;94.20;;;;;;4998427;28;20057;-96
2023/08/22 11:40:00;;;;;;;2.35;0.30;;;26.10;94.00;;;;;;4997742;28;20022;-95
2023/08/22 11:42:30;;;;;;;1.85;0.20;;;26.10;93.50;;;;;;4999618;28;20049;-95
2023/08/22 11:45:04;;;;;;;1.17;0.25;;;26.20;93.50;;;;;;5000694;28;20033;-95
2023/08/22 11:47:46;;;;;;;2.08;0.40;;;26.30;92.50;;;;;;4998053;28;20026;-96
2023/08/22 11:50:25;;;;;;;1.05;0.20;;;26.30;92.00;;;;;;4997295;28;20030;-95
2023/08/22 11:52:54;;;;;;;1.23;0.22;;;26.40;91.90;;;;;;4997576;28;20038;-94
2023/08/22 11:55:28;;;;;;;1.85;0.30;;;26.30;91.40;;;;;;5002812;28;20050;-95
2023/08/22 11:57:56;;;;;;;1.83;0.30;;;26.30;91.40;;;;;;4998407;28;20376;-95
2023/08/22 12:00:24;;;;;;;1.65;0.40;;;26.40;91.50;;;;;;4989871;28;20089;-95
2023/08/22 12:02:51;;;;;;;4.13;0.40;;;26.30;90.70;;;;;;4992721;28;20034;-95
2023/08/22 12:05:32;;;;;;;4.30;0.60;;;26.30;91.00;;;;;;5014210;28;20117;-96
2023/08/22 12:07:59;;;;;;;4.17;0.50;;;26.30;91.20;;;;;;4995913;28;20089;-96
2023/08/22 12:10:24;;;;;;;6.78;0.60;;;26.20;91.00;;;;;;4996767;28;20097;-95
2023/08/22 12:12:50;;;;;;;1.58;0.47;;;26.20;91.00;;;;;;4993194;28;20149;-95
2023/08/22 12:15:15;;;;;;;4.03;1.23;;;26.10;91.00;;;;;;4992012;28;20843;-95
2023/08/22 12:17:41;;;;;;;2.05;0.50;;;26.20;90.90;;;;;;4997360;28;20030;-95
2023/08/22 12:20:07;;;;;;;3.85;0.68;;;26.20;90.70;;;;;;4997790;28;20025;-96
2023/08/22 12:22:33;;;;;;;2.30;0.57;;;26.20;90.80;;;;;;4997663;28;20129;-96
2023/08/22 12:24:58;;;;;;;4.18;1.10;;;26.20;91.00;;;;;;4996654;28;20509;-96
2023/08/22 12:27:27;;;;;;;2.55;1.15;;;26.20;90.70;;;;;;4997159;28;20049;-96
2023/08/22 12:29:53;;;;;;;3.45;0.75;;;26.20;90.90;;;;;;5001303;28;20029;-94
2023/08/22 12:32:19;;;;;;;3.20;1.00;;;26.10;90.90;;;;;;5011983;28;20027;-94
2023/08/22 12:34:44;;;;;;;4.97;1.73;;;26.00;91.00;;;;;;4995459;28;20041;-96
2023/08/22 12:37:10;;;;;;;2.67;1.10;;;26.00;90.90;;;;;;4996527;28;20033;-95